Terminal Aerodrome Forecast
Issued by NWS

Home | Current Version | Previous Version | Text Only | Print | Product List | Glossary On
Versions: 1 2 3 4 5 6 7 8 9 10 11 12 13 14 15 16 17 18 19 20 21 22 23 24 25 26 27 28 29 30 31 32 33 34 35 36 37 38 39 40 41
000
FTAK31 PAFA 060642 AAA
TAFAFA
TAF AMD
PAFA 060642Z 0607/0712 21004KT 6SM -SN BR SCT016 BKN035 OVC070
     FM060900 VRB03KT 3SM -SN SCT015 BKN025 OVC035
     FM061300 VRB03KT 6SM -SN BR FEW015 SCT025 OVC035
     FM061800 04003KT P6SM BKN050 OVC080
     FM062200 05004KT P6SM VCSH SCT025 BKN050 OVC080
     FM071000 18004KT 5SM -SN BR SCT015 BKN025 OVC050=

USA.gov is the U.S. government's official web portal to all federal, state and local government web resources and services.